PKWA/KWA METAR and TAF weather

Enter ICAO airport designator
Station Type Date Time Source
PKWA METAR 2020/11/28 20:00 UTC NOAA

PKWA 282000Z AUTO 09019G22KT 7SM SCT020 SCT029 BKN046 27/25 A2982 RMK AO2 T02720253


Station Type Date Time Source
PKWA Decoded METAR 2020/11/28 20:00 UTC NOAA

Kwajalein, Bucholz AAF, Kwajalein KMR ATOL Airport, Marshall Islands (PKWA) 08-43N 167-44E 2M
Nov 28, 2020 - 03:00 PM EST / 2020.11.28 2000 UTC
Wind: from the E (090 degrees) at 22 MPH (19 KT) gusting to 25 MPH (22 KT):0
Visibility: 7 mile(s):0
Sky conditions: mostly cloudy
Temperature: 81.0 F (27.2 C)
Dew Point: 77.5 F (25.3 C)
Relative Humidity: 89%
Pressure (altimeter): 29.82 in. Hg (1009 hPa)
ob: PKWA 282000Z AUTO 09019G22KT 7SM SCT020 SCT029 BKN046 27/25 A2982 RMK AO2 T02720253
cycle: 20

Station Type Date Time Source
PKWA TAF 2020/11/28 18:27 UTC NOAA

TAF PKWA 281722Z 2818/2918 08015G25KT P6SM VCSH SCT025 SCT100

Example: see airport list